Castle Valley, Utah
Current Conditions -  °F | °C
As of 12:53 PM on Thursday 29 Jan 2015 (Local Time) from KCNY Reporting Station
Clear Clear  
Wind Chill: 10°   Ceiling: Unl
Heat Index: 10°   Visibility: 10mi
Dew Point:   Wind: 5mph
Humidity: 50%   Direction: 10°N
Pressure: 30.3"   Gusts: NA
Location:  38.6903°N, 109.256°W
Report Text: KCNY 291953Z AUTO 01004KT 10SM CLR 10/00 A3030 RMK AO2 SLP263 T01000000
Loading
Personal Weather Stations






























Interactive Weather Map New forecast layout! Learn more

10-Day Weather Forecast

Advertisements
Track Severe Weather on mobile